createdAt,value
2018-08-28T00:01:05.266Z,82.81
2018-08-28T00:02:11.412Z,83.25
2018-08-28T00:03:17.072Z,83.27
2018-08-28T00:04:22.701Z,83.11
2018-08-28T00:05:28.676Z,83.09
2018-08-28T00:06:34.778Z,83.47
2018-08-28T00:07:41.841Z,83.41
2018-08-28T00:08:47.608Z,83.95
2018-08-28T00:09:53.624Z,83.72
2018-08-28T00:10:59.765Z,84.44
2018-08-28T00:12:05.171Z,85.75
2018-08-28T00:13:11.170Z,86.86
2018-08-28T00:14:17.220Z,87.31
2018-08-28T00:15:22.894Z,86.56
2018-08-28T00:16:28.832Z,87.10
2018-08-28T00:17:34.876Z,86.23
2018-08-28T00:18:40.944Z,87.23
2018-08-28T00:19:46.972Z,87.42
2018-08-28T00:20:52.968Z,86.08
2018-08-28T00:21:59.062Z,85.83
2018-08-28T00:23:04.719Z,85.05
2018-08-28T00:24:10.960Z,84.57
2018-08-28T00:25:16.964Z,84.12
2018-08-28T00:26:24.045Z,85.11
2018-08-28T00:27:35.115Z,85.02
2018-08-28T00:28:41.240Z,85.62
2018-08-28T00:29:46.968Z,85.70
2018-08-28T00:30:53.036Z,86.02
2018-08-28T00:31:58.680Z,85.13
2018-08-28T00:33:04.412Z,85.20
2018-08-28T00:34:10.435Z,84.78
2018-08-28T00:35:16.211Z,85.25
2018-08-28T00:36:22.231Z,85.96
2018-08-28T00:37:28.260Z,85.97
2018-08-28T00:38:34.267Z,85.93
2018-08-28T00:39:40.383Z,86.17
2018-08-28T00:40:46.461Z,85.69
2018-08-28T00:41:52.567Z,85.49
2018-08-28T00:42:58.716Z,85.15
2018-08-28T00:44:05.292Z,85.06
2018-08-28T00:45:11.302Z,84.95
2018-08-28T00:46:17.409Z,85.06
2018-08-28T00:47:23.571Z,84.19
2018-08-28T00:48:29.298Z,85.01
2018-08-28T00:49:35.348Z,85.19
2018-08-28T00:50:40.991Z,84.97
2018-08-28T00:51:46.930Z,85.20
2018-08-28T00:52:57.940Z,84.52
2018-08-28T00:54:04.047Z,84.87
2018-08-28T00:55:09.861Z,84.35
2018-08-28T00:56:16.129Z,84.90
2018-08-28T00:57:22.273Z,84.75
2018-08-28T00:58:28.307Z,84.58
2018-08-28T00:59:34.288Z,84.34
2018-08-28T01:00:45.405Z,84.25
2018-08-28T01:01:51.406Z,84.46
2018-08-28T01:02:57.078Z,84.55
2018-08-28T01:04:03.214Z,84.65
2018-08-28T01:05:08.101Z,84.89
2018-08-28T01:06:14.196Z,84.33
2018-08-28T01:07:20.299Z,84.32
2018-08-28T01:08:26.452Z,84.45
2018-08-28T01:09:32.448Z,84.12
2018-08-28T01:10:38.563Z,84.16
2018-08-28T01:11:44.635Z,85.03
2018-08-28T01:12:50.648Z,84.66
2018-08-28T01:13:56.684Z,84.57
2018-08-28T01:15:06.201Z,84.60
2018-08-28T01:16:12.230Z,84.63
2018-08-28T01:17:18.341Z,84.45
2018-08-28T01:18:24.568Z,84.43
2018-08-28T01:19:30.557Z,84.26
2018-08-28T01:20:36.619Z,85.23
2018-08-28T01:21:42.564Z,85.16
2018-08-28T01:22:48.605Z,85.03
2018-08-28T01:23:54.577Z,84.86
2018-08-28T01:25:00.697Z,84.79
2018-08-28T01:26:06.459Z,84.76
2018-08-28T01:27:12.521Z,84.65
2018-08-28T01:28:18.499Z,84.12
2018-08-28T01:29:24.500Z,85.17
2018-08-28T01:30:30.276Z,86.71
2018-08-28T01:31:37.315Z,86.32
2018-08-28T01:32:43.364Z,86.22
2018-08-28T01:33:49.361Z,86.71
2018-08-28T01:34:55.323Z,86.12
2018-08-28T01:36:01.391Z,86.51
2018-08-28T01:37:07.387Z,86.92
2018-08-28T01:38:14.527Z,86.86
2018-08-28T01:39:20.508Z,86.71
2018-08-28T01:40:26.482Z,86.21
2018-08-28T01:41:32.529Z,85.81
2018-08-28T01:42:38.495Z,85.76
2018-08-28T01:43:44.531Z,85.16
2018-08-28T01:44:50.286Z,85.48
2018-08-28T01:45:56.320Z,85.14
2018-08-28T01:47:02.832Z,85.20
2018-08-28T01:48:08.945Z,85.08
2018-08-28T01:49:15.080Z,85.28
2018-08-28T01:50:20.950Z,84.88
2018-08-28T01:51:27.091Z,85.22
2018-08-28T01:52:33.062Z,85.08
2018-08-28T01:53:38.918Z,85.12
2018-08-28T01:54:44.850Z,85.05
2018-08-28T01:55:50.860Z,85.38
2018-08-28T01:56:56.776Z,85.31
2018-08-28T01:58:03.671Z,85.12
2018-08-28T01:59:09.379Z,85.95
2018-08-28T02:00:15.400Z,86.08
2018-08-28T02:01:21.462Z,86.50
2018-08-28T02:02:27.507Z,86.57
2018-08-28T02:03:33.643Z,86.10
2018-08-28T02:04:39.404Z,85.97
2018-08-28T02:05:45.463Z,86.84
2018-08-28T02:06:51.423Z,87.51
2018-08-28T02:07:58.111Z,88.28
2018-08-28T02:09:03.493Z,87.42
2018-08-28T02:10:09.584Z,86.48
2018-08-28T02:11:15.555Z,86.38
2018-08-28T02:12:21.562Z,86.59
2018-08-28T02:13:27.693Z,86.77
2018-08-28T02:14:33.732Z,86.57
2018-08-28T02:15:39.786Z,85.79
2018-08-28T02:16:45.401Z,85.64
2018-08-28T02:17:51.381Z,85.65
2018-08-28T02:18:57.286Z,85.65
2018-08-28T02:20:03.259Z,85.76
2018-08-28T02:21:09.245Z,85.11
2018-08-28T02:22:15.177Z,84.60
2018-08-28T02:23:21.301Z,83.99
2018-08-28T02:24:27.443Z,84.15
2018-08-28T02:25:33.516Z,83.26
2018-08-28T02:26:39.282Z,83.05
2018-08-28T02:27:45.639Z,83.19
2018-08-28T02:28:51.767Z,83.15
2018-08-28T02:29:57.930Z,81.52
2018-08-28T02:31:03.956Z,81.15
2018-08-28T02:32:09.945Z,81.54
2018-08-28T02:33:15.955Z,81.46
2018-08-28T02:34:23.024Z,81.44
2018-08-28T02:35:28.736Z,81.77
2018-08-28T02:36:34.701Z,81.97
2018-08-28T02:37:40.696Z,81.26
2018-08-28T02:38:46.809Z,81.18
2018-08-28T02:39:52.920Z,80.92
2018-08-28T02:40:59.030Z,81.48
2018-08-28T02:42:05.930Z,81.95
2018-08-28T02:43:13.043Z,81.67
2018-08-28T02:44:19.003Z,82.20
2018-08-28T02:45:25.115Z,82.13
2018-08-28T02:46:31.188Z,82.02
2018-08-28T02:47:37.320Z,81.47
2018-08-28T02:48:43.406Z,81.12
2018-08-28T02:49:49.452Z,81.51
2018-08-28T02:50:55.571Z,81.64
2018-08-28T02:52:01.538Z,81.66
2018-08-28T02:53:07.665Z,81.46
2018-08-28T02:54:13.431Z,81.51
2018-08-28T02:55:19.446Z,81.59
2018-08-28T02:56:25.099Z,81.42
2018-08-28T02:57:31.183Z,80.98
2018-08-28T02:58:37.763Z,81.02
2018-08-28T02:59:43.795Z,80.59
2018-08-28T03:00:49.869Z,80.45
2018-08-28T03:01:55.893Z,80.21
2018-08-28T03:03:01.715Z,80.91
2018-08-28T03:04:07.887Z,81.15
2018-08-28T03:05:13.980Z,81.13
2018-08-28T03:06:19.882Z,80.86
2018-08-28T03:07:25.931Z,80.33
2018-08-28T03:08:32.021Z,79.89
2018-08-28T03:09:38.149Z,80.96
2018-08-28T03:10:44.171Z,81.39
2018-08-28T03:11:50.165Z,81.10
2018-08-28T03:12:56.246Z,80.54
2018-08-28T03:14:02.482Z,82.10
2018-08-28T03:15:08.197Z,81.61
2018-08-28T03:16:14.258Z,80.31
2018-08-28T03:17:20.280Z,81.24
2018-08-28T03:18:26.375Z,81.43
2018-08-28T03:19:32.511Z,80.96
2018-08-28T03:20:38.144Z,81.08
2018-08-28T03:21:43.957Z,82.33
2018-08-28T03:22:49.970Z,82.70
2018-08-28T03:23:56.687Z,82.09
2018-08-28T03:25:02.739Z,81.67
2018-08-28T03:26:08.703Z,80.66
2018-08-28T03:27:14.634Z,80.02
2018-08-28T03:28:20.618Z,80.38
2018-08-28T03:29:26.720Z,79.86
2018-08-28T03:30:32.864Z,79.69
2018-08-28T03:31:39.768Z,79.48
2018-08-28T03:32:45.753Z,79.72
2018-08-28T03:33:51.756Z,79.75
2018-08-28T03:34:57.577Z,79.75
2018-08-28T03:36:03.585Z,80.14
2018-08-28T03:37:09.456Z,80.77
2018-08-28T03:38:15.496Z,81.61
2018-08-28T03:39:21.128Z,82.23
2018-08-28T03:40:27.116Z,82.25
2018-08-28T03:41:33.725Z,82.21
2018-08-28T03:42:39.803Z,82.38
2018-08-28T03:43:45.814Z,82.02
2018-08-28T03:44:51.868Z,81.24
2018-08-28T03:45:58.022Z,80.53
2018-08-28T03:47:04.743Z,80.59
2018-08-28T03:48:10.901Z,80.18
2018-08-28T03:49:17.064Z,80.08
2018-08-28T03:50:23.096Z,81.74
2018-08-28T03:51:29.214Z,82.78
2018-08-28T03:52:36.509Z,82.56
2018-08-28T03:53:52.314Z,83.23
2018-08-28T03:55:07.908Z,83.03
2018-08-28T03:56:26.156Z,82.96
2018-08-28T03:57:47.499Z,83.00
2018-08-28T03:59:01.201Z,82.29
2018-08-28T04:00:20.587Z,82.16
2018-08-28T04:01:38.973Z,82.32
2018-08-28T04:02:57.234Z,81.66
2018-08-28T04:04:13.871Z,81.37
2018-08-28T04:05:33.572Z,81.30
2018-08-28T04:06:52.072Z,80.92
2018-08-28T04:08:10.367Z,81.14
2018-08-28T04:09:28.223Z,81.00
2018-08-28T04:10:43.274Z,81.22
2018-08-28T04:11:59.958Z,80.50
2018-08-28T04:13:16.050Z,80.13
2018-08-28T04:14:33.182Z,80.29
2018-08-28T04:15:50.107Z,81.00
2018-08-28T04:17:07.609Z,80.90
2018-08-28T04:18:25.283Z,81.49
2018-08-28T04:19:35.747Z,82.07
2018-08-28T04:20:46.885Z,81.26
2018-08-28T04:21:53.000Z,81.24
2018-08-28T04:22:59.102Z,81.68
2018-08-28T04:24:04.861Z,81.56
2018-08-28T04:25:10.936Z,80.64
2018-08-28T04:26:17.223Z,81.00
2018-08-28T04:27:23.356Z,81.90
2018-08-28T04:28:29.327Z,82.10
2018-08-28T04:29:35.894Z,80.84
2018-08-28T04:30:41.860Z,80.45
2018-08-28T04:31:47.833Z,81.14
2018-08-28T04:32:53.832Z,81.34
2018-08-28T04:34:00.036Z,81.42
2018-08-28T04:35:05.709Z,81.37
2018-08-28T04:36:11.673Z,80.85
2018-08-28T04:37:17.803Z,80.56
2018-08-28T04:38:23.964Z,81.03
2018-08-28T04:39:29.974Z,80.80
2018-08-28T04:40:36.001Z,80.45
2018-08-28T04:41:42.714Z,80.38
2018-08-28T04:42:48.706Z,80.30
2018-08-28T04:43:54.810Z,79.61
2018-08-28T04:45:00.950Z,79.85
2018-08-28T04:46:07.203Z,79.85
2018-08-28T04:47:12.830Z,80.24
2018-08-28T04:48:18.595Z,80.80
2018-08-28T04:49:24.517Z,80.80
2018-08-28T04:50:30.670Z,80.40
2018-08-28T04:51:36.455Z,79.31
2018-08-28T04:52:43.220Z,78.22
2018-08-28T04:53:49.604Z,77.57
2018-08-28T04:54:55.691Z,77.85
2018-08-28T04:56:01.917Z,78.11
2018-08-28T04:57:08.000Z,76.00
2018-08-28T04:58:14.033Z,76.08
2018-08-28T04:59:20.155Z,75.90
2018-08-28T05:00:26.122Z,76.25
2018-08-28T05:01:32.253Z,76.26
2018-08-28T05:02:38.268Z,76.61
2018-08-28T05:03:44.533Z,76.23
2018-08-28T05:04:51.105Z,76.44
2018-08-28T05:05:57.183Z,76.21
2018-08-28T05:07:03.260Z,75.15
2018-08-28T05:08:08.923Z,75.31
2018-08-28T05:09:14.968Z,75.37
2018-08-28T05:10:20.980Z,75.63
2018-08-28T05:11:27.034Z,75.92
2018-08-28T05:12:32.976Z,77.68
2018-08-28T05:13:38.991Z,76.58
2018-08-28T05:14:45.010Z,76.76
2018-08-28T05:15:51.161Z,77.01
2018-08-28T05:16:57.439Z,76.91
2018-08-28T05:18:03.460Z,77.01
2018-08-28T05:19:11.517Z,76.52
2018-08-28T05:20:18.890Z,76.49
2018-08-28T05:21:25.138Z,76.36
2018-08-28T05:22:31.169Z,74.82
2018-08-28T05:23:37.176Z,74.06
2018-08-28T05:24:43.290Z,74.45
2018-08-28T05:25:49.349Z,75.20
2018-08-28T05:26:55.774Z,75.33
2018-08-28T05:28:01.653Z,74.96
2018-08-28T05:29:07.924Z,74.18
2018-08-28T05:30:13.891Z,73.63
2018-08-28T05:31:19.977Z,74.26
2018-08-28T05:32:26.041Z,74.50
2018-08-28T05:33:32.033Z,74.50
2018-08-28T05:34:37.900Z,74.39
2018-08-28T05:35:43.961Z,74.52
2018-08-28T05:36:49.694Z,74.59
2018-08-28T05:37:55.754Z,74.35
2018-08-28T05:39:01.976Z,74.88
2018-08-28T05:40:07.936Z,75.26
2018-08-28T05:41:13.963Z,75.24
2018-08-28T05:42:19.971Z,75.25
2018-08-28T05:43:26.048Z,75.46
2018-08-28T05:44:32.046Z,75.40
2018-08-28T05:45:38.188Z,75.83
2018-08-28T05:46:44.318Z,76.21
2018-08-28T05:47:50.376Z,76.29
2018-08-28T05:48:56.480Z,75.22
2018-08-28T05:50:02.597Z,75.44
2018-08-28T05:51:08.695Z,75.45
2018-08-28T05:52:14.831Z,75.12
2018-08-28T05:53:20.916Z,74.82
2018-08-28T05:54:26.955Z,74.52
2018-08-28T05:55:32.909Z,74.94
2018-08-28T05:56:39.059Z,74.91
2018-08-28T05:57:45.016Z,74.39
2018-08-28T05:58:51.068Z,73.22
2018-08-28T05:59:57.151Z,73.07
2018-08-28T06:01:03.011Z,73.11
2018-08-28T06:02:09.180Z,73.65
2018-08-28T06:03:14.962Z,74.21
2018-08-28T06:04:21.268Z,74.22
2018-08-28T06:05:27.264Z,73.82
2018-08-28T06:06:33.269Z,72.56
2018-08-28T06:07:39.384Z,71.62
2018-08-28T06:08:45.518Z,71.29
2018-08-28T06:09:51.684Z,71.62
2018-08-28T06:10:57.572Z,71.76
2018-08-28T06:12:04.100Z,71.88
2018-08-28T06:13:10.108Z,71.87
2018-08-28T06:14:16.122Z,72.06
2018-08-28T06:15:22.291Z,71.68
2018-08-28T06:16:28.346Z,71.81
2018-08-28T06:17:34.492Z,71.37
2018-08-28T06:18:40.279Z,72.10
2018-08-28T06:19:46.604Z,72.54
2018-08-28T06:20:52.827Z,72.67
2018-08-28T06:21:59.254Z,71.66
2018-08-28T06:23:04.806Z,71.58
2018-08-28T06:24:10.889Z,70.36
2018-08-28T06:25:17.170Z,70.41
2018-08-28T06:26:23.239Z,70.68
2018-08-28T06:27:29.344Z,70.56
2018-08-28T06:28:35.325Z,70.47
2018-08-28T06:29:41.427Z,70.24
2018-08-28T06:30:47.419Z,69.85
2018-08-28T06:31:53.417Z,69.16
2018-08-28T06:32:59.465Z,68.25
2018-08-28T06:34:05.259Z,68.21
2018-08-28T06:35:11.353Z,68.89
2018-08-28T06:36:17.400Z,67.73
2018-08-28T06:37:23.392Z,68.03
2018-08-28T06:38:29.569Z,68.40
2018-08-28T06:39:35.583Z,68.60
2018-08-28T06:40:42.188Z,68.40
2018-08-28T06:41:48.222Z,67.87
2018-08-28T06:42:54.266Z,67.53
2018-08-28T06:44:01.235Z,68.22
2018-08-28T06:45:07.069Z,68.90
2018-08-28T06:46:13.072Z,69.48
2018-08-28T06:47:19.083Z,69.54
2018-08-28T06:48:25.150Z,68.09
2018-08-28T06:49:31.160Z,67.98
2018-08-28T06:50:37.514Z,66.50
2018-08-28T06:51:43.239Z,65.89
2018-08-28T06:52:49.185Z,66.48
2018-08-28T06:53:55.510Z,66.09
2018-08-28T06:55:01.467Z,65.75
2018-08-28T06:56:07.543Z,66.91
2018-08-28T06:57:13.977Z,66.33
2018-08-28T06:58:19.944Z,66.26
2018-08-28T06:59:26.621Z,66.80
2018-08-28T07:00:32.626Z,66.68
2018-08-28T07:01:38.705Z,66.93
2018-08-28T07:02:44.782Z,66.74
2018-08-28T07:03:51.129Z,66.09
2018-08-28T07:04:57.260Z,65.57
2018-08-28T07:06:03.380Z,64.54
2018-08-28T07:07:09.389Z,64.77
2018-08-28T07:08:15.438Z,63.16
2018-08-28T07:09:21.500Z,63.62
2018-08-28T07:10:27.608Z,64.06
2018-08-28T07:11:33.715Z,64.58
2018-08-28T07:12:41.255Z,65.06
2018-08-28T07:13:46.950Z,65.22
2018-08-28T07:14:52.949Z,64.42
2018-08-28T07:15:58.995Z,62.83
2018-08-28T07:17:05.070Z,61.40
2018-08-28T07:18:11.212Z,62.25
2018-08-28T07:19:18.004Z,62.76
2018-08-28T07:20:24.304Z,62.06
2018-08-28T07:21:30.318Z,62.18
2018-08-28T07:22:36.461Z,62.34
2018-08-28T07:23:43.174Z,62.35
2018-08-28T07:24:49.140Z,63.00
2018-08-28T07:25:55.297Z,62.32
2018-08-28T07:27:01.460Z,61.13
2018-08-28T07:28:07.609Z,59.44
2018-08-28T07:29:13.688Z,58.35
2018-08-28T07:30:19.831Z,58.92
2018-08-28T07:31:26.003Z,58.30
2018-08-28T07:32:32.101Z,57.16
2018-08-28T07:33:38.139Z,57.36
2018-08-28T07:34:44.129Z,56.29
2018-08-28T07:35:50.440Z,55.65
2018-08-28T07:36:56.434Z,56.96
2018-08-28T07:38:02.572Z,57.29
2018-08-28T07:39:08.520Z,57.89
2018-08-28T07:40:14.432Z,57.91
2018-08-28T07:41:20.576Z,56.89
2018-08-28T07:42:26.592Z,56.66
2018-08-28T07:43:32.896Z,57.36
2018-08-28T07:44:38.869Z,57.97
2018-08-28T07:45:44.864Z,57.48
2018-08-28T07:46:51.020Z,56.20
2018-08-28T07:47:56.809Z,56.66
2018-08-28T07:49:02.904Z,56.19
2018-08-28T07:50:08.539Z,56.75
2018-08-28T07:51:14.259Z,56.67
2018-08-28T07:52:20.232Z,57.71
2018-08-28T07:53:27.109Z,57.90
2018-08-28T07:54:33.128Z,58.19
2018-08-28T07:55:39.243Z,57.65
2018-08-28T07:56:45.361Z,56.59
2018-08-28T07:57:51.349Z,56.39
2018-08-28T07:58:57.375Z,55.82
2018-08-28T08:00:03.767Z,56.70
2018-08-28T08:01:10.106Z,56.56
2018-08-28T08:02:16.400Z,56.87
2018-08-28T08:03:22.320Z,56.67
2018-08-28T08:04:28.710Z,55.74
2018-08-28T08:05:34.666Z,57.07
2018-08-28T08:06:40.723Z,56.85
2018-08-28T08:07:46.828Z,57.27
2018-08-28T08:08:52.503Z,56.74
2018-08-28T08:09:58.511Z,55.49
2018-08-28T08:11:04.655Z,55.00
2018-08-28T08:12:10.741Z,54.25
2018-08-28T08:13:16.764Z,53.55
2018-08-28T08:14:22.508Z,53.43
2018-08-28T08:15:28.614Z,52.87
2018-08-28T08:16:35.371Z,54.12
2018-08-28T08:17:41.492Z,54.12
2018-08-28T08:18:47.535Z,52.82
2018-08-28T08:19:53.561Z,53.00
2018-08-28T08:20:59.492Z,52.32
2018-08-28T08:22:05.512Z,53.41
2018-08-28T08:23:11.536Z,53.46
2018-08-28T08:24:17.655Z,52.84
2018-08-28T08:25:23.725Z,51.74
2018-08-28T08:26:29.736Z,51.94
2018-08-28T08:27:35.847Z,52.44
2018-08-28T08:28:41.876Z,51.02
2018-08-28T08:29:48.607Z,51.14
2018-08-28T08:30:54.672Z,50.64
2018-08-28T08:32:00.795Z,50.37
2018-08-28T08:33:06.603Z,51.39
2018-08-28T08:34:12.720Z,51.18
2018-08-28T08:35:18.758Z,50.21
2018-08-28T08:36:24.985Z,49.69
2018-08-28T08:37:30.755Z,50.55
2018-08-28T08:38:36.846Z,50.74
2018-08-28T08:39:42.801Z,51.33
2018-08-28T08:40:48.599Z,50.65
2018-08-28T08:41:54.278Z,52.00
2018-08-28T08:43:00.452Z,51.30
2018-08-28T08:44:07.257Z,51.00
2018-08-28T08:45:13.971Z,50.81
2018-08-28T08:46:19.647Z,51.11
2018-08-28T08:47:25.699Z,52.04
2018-08-28T08:48:32.279Z,52.21
2018-08-28T08:49:38.777Z,52.02
2018-08-28T08:50:45.064Z,53.20
2018-08-28T08:51:51.018Z,52.47
2018-08-28T08:52:57.751Z,51.56
2018-08-28T08:54:03.871Z,52.11
2018-08-28T08:55:09.629Z,50.84
2018-08-28T08:56:15.653Z,52.26
2018-08-28T08:57:21.737Z,51.75
2018-08-28T08:58:28.013Z,52.52
2018-08-28T08:59:34.000Z,52.13
2018-08-28T09:00:39.980Z,51.65
2018-08-28T09:01:46.085Z,51.06
2018-08-28T09:02:52.212Z,49.95
2018-08-28T09:03:58.447Z,50.49
2018-08-28T09:05:04.051Z,50.32
2018-08-28T09:06:10.153Z,51.22
2018-08-28T09:07:16.427Z,50.46
2018-08-28T09:08:22.694Z,49.84
2018-08-28T09:09:28.673Z,49.81
2018-08-28T09:10:35.290Z,48.99
2018-08-28T09:11:41.269Z,50.39
2018-08-28T09:12:47.429Z,50.71
2018-08-28T09:13:53.458Z,50.71
2018-08-28T09:14:59.480Z,50.23
2018-08-28T09:16:05.275Z,50.03
2018-08-28T09:17:11.319Z,51.75
2018-08-28T09:18:17.393Z,51.99
2018-08-28T09:19:23.628Z,51.38
2018-08-28T09:20:29.841Z,51.43
2018-08-28T09:21:35.932Z,50.62
2018-08-28T09:22:41.948Z,50.90
2018-08-28T09:23:48.072Z,51.62
2018-08-28T09:24:54.072Z,51.65
2018-08-28T09:26:00.346Z,51.24
2018-08-28T09:27:06.488Z,50.40
2018-08-28T09:28:12.558Z,49.94
2018-08-28T09:29:18.608Z,50.50
2018-08-28T09:30:25.090Z,49.69
2018-08-28T09:31:31.108Z,50.53
2018-08-28T09:32:37.846Z,51.34
2018-08-28T09:33:43.831Z,52.57
2018-08-28T09:34:49.947Z,53.24
2018-08-28T09:35:56.016Z,53.26
2018-08-28T09:37:02.065Z,53.24
2018-08-28T09:38:08.034Z,53.26
2018-08-28T09:39:13.827Z,53.71
2018-08-28T09:40:19.519Z,53.09
2018-08-28T09:41:30.741Z,52.62
2018-08-28T09:42:36.778Z,52.13
2018-08-28T09:43:42.956Z,52.75
2018-08-28T09:44:49.124Z,52.72
2018-08-28T09:45:55.218Z,52.74
2018-08-28T09:47:02.038Z,52.52
2018-08-28T09:48:07.806Z,52.97
2018-08-28T09:49:14.034Z,52.54
2018-08-28T09:50:20.136Z,52.46
2018-08-28T09:51:26.356Z,52.83
2018-08-28T09:52:32.354Z,53.62
2018-08-28T09:53:38.494Z,55.24
2018-08-28T09:54:44.760Z,54.22
2018-08-28T09:55:50.777Z,53.72
2018-08-28T09:56:56.792Z,53.61
2018-08-28T09:58:02.785Z,54.19
2018-08-28T09:59:09.041Z,53.76
2018-08-28T10:00:14.795Z,53.79
2018-08-28T10:01:21.077Z,54.47
2018-08-28T10:02:26.436Z,53.69
2018-08-28T10:03:32.500Z,53.72
2018-08-28T10:04:38.625Z,53.25
2018-08-28T10:05:45.625Z,53.27
2018-08-28T10:06:51.754Z,53.12
2018-08-28T10:07:57.909Z,54.00
2018-08-28T10:09:03.484Z,53.43
2018-08-28T10:10:08.803Z,53.24
2018-08-28T10:11:14.744Z,52.69
2018-08-28T10:12:20.773Z,53.16
2018-08-28T10:13:26.763Z,52.08
2018-08-28T10:14:32.899Z,51.02
2018-08-28T10:15:39.215Z,50.98
2018-08-28T10:16:45.284Z,51.32
2018-08-28T10:17:51.296Z,50.68
2018-08-28T10:18:57.403Z,51.55
2018-08-28T10:20:03.097Z,51.74
2018-08-28T10:21:09.093Z,51.07
2018-08-28T10:22:15.085Z,50.58
2018-08-28T10:23:21.038Z,50.78
2018-08-28T10:24:27.036Z,51.21
2018-08-28T10:25:33.146Z,51.05
2018-08-28T10:26:39.233Z,50.50
2018-08-28T10:27:45.240Z,50.94
2018-08-28T10:28:51.268Z,50.68
2018-08-28T10:29:57.637Z,51.01
2018-08-28T10:31:03.773Z,51.59
2018-08-28T10:32:09.758Z,50.72
2018-08-28T10:33:15.869Z,49.87
2018-08-28T10:34:21.891Z,49.46
2018-08-28T10:35:28.491Z,49.23
2018-08-28T10:36:34.604Z,49.78
2018-08-28T10:37:40.714Z,50.20
2018-08-28T10:38:46.717Z,50.07
2018-08-28T10:39:52.864Z,49.92
2018-08-28T10:40:58.940Z,49.77
2018-08-28T10:42:04.961Z,50.94
2018-08-28T10:43:11.052Z,49.76
2018-08-28T10:44:17.072Z,50.36
2018-08-28T10:45:23.192Z,50.51
2018-08-28T10:46:29.277Z,50.75
2018-08-28T10:47:35.608Z,51.37
2018-08-28T10:48:41.449Z,52.00
2018-08-28T10:49:47.500Z,52.87
2018-08-28T10:50:53.527Z,52.26
2018-08-28T10:52:00.109Z,53.65
2018-08-28T10:53:06.118Z,53.43
2018-08-28T10:54:12.279Z,52.78
2018-08-28T10:55:18.256Z,51.57
2018-08-28T10:56:24.331Z,51.69
2018-08-28T10:57:30.437Z,51.30
2018-08-28T10:58:36.503Z,53.01
2018-08-28T10:59:42.689Z,52.34
2018-08-28T11:00:48.795Z,52.53
2018-08-28T11:01:55.261Z,52.08
2018-08-28T11:03:01.383Z,51.39
2018-08-28T11:04:07.171Z,51.49
2018-08-28T11:05:13.193Z,51.54
2018-08-28T11:06:19.335Z,51.75
2018-08-28T11:07:25.316Z,52.37
2018-08-28T11:08:31.483Z,51.80
2018-08-28T11:09:37.754Z,51.01
2018-08-28T11:10:43.847Z,49.42
2018-08-28T11:11:49.832Z,50.88
2018-08-28T11:12:55.943Z,50.87
2018-08-28T11:14:02.052Z,49.36
2018-08-28T11:15:08.083Z,51.07
2018-08-28T11:16:14.293Z,50.51
2018-08-28T11:17:20.521Z,49.93
2018-08-28T11:18:26.476Z,48.90
2018-08-28T11:19:32.570Z,49.56
2018-08-28T11:20:38.740Z,49.97
2018-08-28T11:21:44.685Z,49.87
2018-08-28T11:22:50.762Z,49.11
2018-08-28T11:23:56.872Z,48.51
2018-08-28T11:25:02.800Z,48.57
2018-08-28T11:26:08.857Z,47.28
2018-08-28T11:27:14.824Z,46.89
2018-08-28T11:28:21.023Z,47.57
2018-08-28T11:29:27.091Z,46.38
2018-08-28T11:30:33.057Z,46.22
2018-08-28T11:31:39.112Z,47.18
2018-08-28T11:32:44.899Z,46.63
2018-08-28T11:33:50.985Z,47.20
2018-08-28T11:34:56.959Z,46.64
2018-08-28T11:36:03.126Z,45.94
2018-08-28T11:37:09.076Z,46.35
2018-08-28T11:38:15.272Z,47.66
2018-08-28T11:39:21.383Z,46.77
2018-08-28T11:40:27.399Z,46.52
2018-08-28T11:41:33.570Z,46.16
2018-08-28T11:42:44.128Z,45.03
2018-08-28T11:43:57.222Z,45.15
2018-08-28T11:45:15.514Z,45.81
2018-08-28T11:46:24.959Z,46.48
2018-08-28T11:47:30.975Z,46.56
2018-08-28T11:48:37.072Z,47.08
2018-08-28T11:49:43.081Z,46.69
2018-08-28T11:50:49.127Z,45.74
2018-08-28T11:51:55.079Z,46.54
2018-08-28T11:53:01.107Z,45.16
2018-08-28T11:54:07.232Z,45.71
2018-08-28T11:55:13.207Z,43.61
2018-08-28T11:56:20.079Z,43.44
2018-08-28T11:57:26.196Z,43.25
2018-08-28T11:58:32.222Z,42.96
2018-08-28T11:59:38.281Z,43.17
2018-08-28T12:00:45.024Z,45.33
2018-08-28T12:01:51.246Z,46.32
2018-08-28T12:02:57.615Z,43.48
2018-08-28T12:04:04.286Z,44.29
2018-08-28T12:05:10.331Z,44.68
2018-08-28T12:06:16.593Z,43.56
2018-08-28T12:07:22.671Z,44.63
2018-08-28T12:08:28.516Z,43.36
2018-08-28T12:09:34.535Z,42.69
2018-08-28T12:10:40.551Z,43.67
2018-08-28T12:11:46.686Z,43.50
2018-08-28T12:12:52.707Z,43.70
2018-08-28T12:13:58.678Z,43.14
2018-08-28T12:15:04.041Z,43.87
2018-08-28T12:16:10.226Z,44.27
2018-08-28T12:17:16.285Z,42.91
2018-08-28T12:18:22.315Z,41.91
2018-08-28T12:19:28.300Z,42.72
2018-08-28T12:20:34.456Z,41.51
2018-08-28T12:21:40.736Z,41.28
2018-08-28T12:22:46.780Z,40.33
2018-08-28T12:23:59.090Z,40.04
2018-08-28T12:25:04.799Z,41.94
2018-08-28T12:26:10.892Z,41.69
2018-08-28T12:27:16.877Z,40.46
2018-08-28T12:28:23.008Z,39.78
2018-08-28T12:29:29.363Z,41.53
2018-08-28T12:30:35.605Z,41.40
2018-08-28T12:31:41.629Z,41.33
2018-08-28T12:32:47.753Z,42.20
2018-08-28T12:33:53.719Z,41.23
2018-08-28T12:34:59.729Z,40.91
2018-08-28T12:36:05.830Z,41.18
2018-08-28T12:37:11.891Z,41.42
2018-08-28T12:38:18.172Z,40.99
2018-08-28T12:39:23.907Z,42.15
2018-08-28T12:40:29.935Z,41.82
2018-08-28T12:41:36.115Z,40.99
2018-08-28T12:42:42.159Z,41.88
2018-08-28T12:43:48.060Z,41.94
2018-08-28T12:44:54.172Z,41.81
2018-08-28T12:46:00.213Z,42.45
2018-08-28T12:47:06.367Z,41.92
2018-08-28T12:48:12.619Z,42.80
2018-08-28T12:49:18.712Z,43.69
2018-08-28T12:50:24.721Z,42.88
2018-08-28T12:51:30.873Z,42.18
2018-08-28T12:52:37.065Z,42.17
2018-08-28T12:53:42.581Z,43.64
2018-08-28T12:54:48.774Z,41.64
2018-08-28T12:55:54.947Z,39.37
2018-08-28T12:57:00.989Z,39.77
2018-08-28T12:58:06.983Z,39.65
2018-08-28T12:59:12.996Z,40.42
2018-08-28T13:00:18.967Z,41.94
2018-08-28T13:01:25.077Z,42.14
2018-08-28T13:02:31.507Z,43.06
2018-08-28T13:03:37.610Z,43.48
2018-08-28T13:04:44.673Z,41.46
2018-08-28T13:05:50.661Z,40.27
2018-08-28T13:06:56.672Z,40.48
2018-08-28T13:08:02.248Z,40.69
2018-08-28T13:09:08.223Z,41.41
2018-08-28T13:10:14.345Z,41.90
2018-08-28T13:11:20.344Z,42.22
2018-08-28T13:12:26.486Z,42.04
2018-08-28T13:13:32.559Z,41.43
2018-08-28T13:14:38.617Z,40.66
2018-08-28T13:15:44.804Z,40.61
2018-08-28T13:16:50.470Z,40.13
2018-08-28T13:17:56.504Z,40.54
2018-08-28T13:19:03.162Z,40.33
2018-08-28T13:20:08.949Z,40.42
2018-08-28T13:21:15.016Z,40.53
2018-08-28T13:22:21.152Z,40.16
2018-08-28T13:23:27.132Z,41.19
2018-08-28T13:24:33.164Z,41.37
2018-08-28T13:25:39.303Z,41.14
2018-08-28T13:26:45.452Z,40.97
2018-08-28T13:27:51.530Z,40.96
2018-08-28T13:28:57.528Z,40.81
2018-08-28T13:30:03.572Z,40.49
2018-08-28T13:31:09.763Z,40.62
2018-08-28T13:32:15.572Z,40.66
2018-08-28T13:33:21.560Z,41.83
2018-08-28T13:34:27.569Z,42.11
2018-08-28T13:35:33.573Z,42.19
2018-08-28T13:36:39.645Z,42.25
2018-08-28T13:37:45.618Z,41.14
2018-08-28T13:38:51.589Z,42.41
2018-08-28T13:39:57.709Z,40.90
2018-08-28T13:41:03.858Z,42.46
2018-08-28T13:42:09.959Z,41.04
2018-08-28T13:43:16.156Z,40.15
2018-08-28T13:44:22.750Z,40.28
2018-08-28T13:45:28.867Z,39.48
2018-08-28T13:46:34.896Z,39.87
2018-08-28T13:47:40.990Z,40.02
2018-08-28T13:48:46.992Z,39.39
2018-08-28T13:49:53.081Z,39.71
2018-08-28T13:50:58.706Z,39.87
2018-08-28T13:52:03.752Z,39.77
2018-08-28T13:53:10.544Z,39.37
2018-08-28T13:54:16.638Z,39.79
2018-08-28T13:55:22.770Z,40.06
2018-08-28T13:56:28.717Z,39.83
2018-08-28T13:57:34.844Z,40.20
2018-08-28T13:58:40.836Z,40.36
2018-08-28T13:59:46.929Z,40.39
2018-08-28T14:00:52.688Z,40.04
2018-08-28T14:01:58.632Z,39.92
2018-08-28T14:03:04.772Z,39.53
2018-08-28T14:04:10.750Z,40.16
2018-08-28T14:05:16.935Z,40.31
2018-08-28T14:06:23.222Z,40.45
2018-08-28T14:07:29.190Z,40.09
2018-08-28T14:08:35.173Z,40.19
2018-08-28T14:09:41.952Z,39.61
2018-08-28T14:10:47.903Z,39.03
2018-08-28T14:11:54.531Z,39.34
2018-08-28T14:13:00.614Z,39.37
2018-08-28T14:14:06.684Z,39.45
2018-08-28T14:15:12.833Z,39.86
2018-08-28T14:16:18.868Z,40.23